sensor_id;sensor_type;location;lat;lon;timestamp;temperature;humidity
42841;DHT22;28491;46.898;7.660;2023-10-19T00:01:15;12.10;85.10
42841;DHT22;28491;46.898;7.660;2023-10-19T00:03:42;12.10;85.40
42841;DHT22;28491;46.898;7.660;2023-10-19T00:06:09;12.10;85.00
42841;DHT22;28491;46.898;7.660;2023-10-19T00:08:37;12.10;84.90
42841;DHT22;28491;46.898;7.660;2023-10-19T00:11:12;12.10;85.50
42841;DHT22;28491;46.898;7.660;2023-10-19T00:13:48;12.20;86.20
42841;DHT22;28491;46.898;7.660;2023-10-19T00:16:19;12.10;86.60
42841;DHT22;28491;46.898;7.660;2023-10-19T00:18:48;12.00;87.70
42841;DHT22;28491;46.898;7.660;2023-10-19T00:21:15;12.00;89.00
42841;DHT22;28491;46.898;7.660;2023-10-19T00:23:53;12.00;90.10
42841;DHT22;28491;46.898;7.660;2023-10-19T00:26:22;12.00;90.50
42841;DHT22;28491;46.898;7.660;2023-10-19T00:28:50;12.00;91.20
42841;DHT22;28491;46.898;7.660;2023-10-19T00:31:19;12.00;91.40
42841;DHT22;28491;46.898;7.660;2023-10-19T00:33:48;12.00;91.50
42841;DHT22;28491;46.898;7.660;2023-10-19T00:36:17;12.00;91.30
42841;DHT22;28491;46.898;7.660;2023-10-19T00:38:46;12.00;91.40
42841;DHT22;28491;46.898;7.660;2023-10-19T00:41:15;12.00;91.30
42841;DHT22;28491;46.898;7.660;2023-10-19T00:43:49;12.00;91.40
42841;DHT22;28491;46.898;7.660;2023-10-19T00:46:17;12.00;91.40
42841;DHT22;28491;46.898;7.660;2023-10-19T00:48:57;12.00;91.50
42841;DHT22;28491;46.898;7.660;2023-10-19T00:51:27;12.00;91.40
42841;DHT22;28491;46.898;7.660;2023-10-19T00:56:36;12.00;91.20
42841;DHT22;28491;46.898;7.660;2023-10-19T00:59:03;11.90;91.20
42841;DHT22;28491;46.898;7.660;2023-10-19T01:01:41;11.90;91.20
42841;DHT22;28491;46.898;7.660;2023-10-19T01:04:15;12.00;90.90
42841;DHT22;28491;46.898;7.660;2023-10-19T01:06:48;11.90;90.70
42841;DHT22;28491;46.898;7.660;2023-10-19T01:09:45;11.90;90.60
42841;DHT22;28491;46.898;7.660;2023-10-19T01:12:11;11.90;90.50
42841;DHT22;28491;46.898;7.660;2023-10-19T01:15:09;11.90;90.40
42841;DHT22;28491;46.898;7.660;2023-10-19T01:17:52;11.90;90.50
42841;DHT22;28491;46.898;7.660;2023-10-19T01:20:20;11.90;90.80
42841;DHT22;28491;46.898;7.660;2023-10-19T01:22:55;11.90;90.90
42841;DHT22;28491;46.898;7.660;2023-10-19T01:25:46;11.90;90.90
42841;DHT22;28491;46.898;7.660;2023-10-19T01:28:38;11.90;90.90
42841;DHT22;28491;46.898;7.660;2023-10-19T01:31:07;11.90;91.00
42841;DHT22;28491;46.898;7.660;2023-10-19T01:33:33;11.90;90.80
42841;DHT22;28491;46.898;7.660;2023-10-19T01:36:01;11.90;91.00
42841;DHT22;28491;46.898;7.660;2023-10-19T01:38:37;11.90;91.00
42841;DHT22;28491;46.898;7.660;2023-10-19T01:41:07;11.90;91.30
42841;DHT22;28491;46.898;7.660;2023-10-19T01:43:43;11.90;91.30
42841;DHT22;28491;46.898;7.660;2023-10-19T01:46:12;11.90;91.50
42841;DHT22;28491;46.898;7.660;2023-10-19T01:48:39;11.90;91.50
42841;DHT22;28491;46.898;7.660;2023-10-19T01:51:06;11.80;92.30
42841;DHT22;28491;46.898;7.660;2023-10-19T01:53:36;11.80;92.80
42841;DHT22;28491;46.898;7.660;2023-10-19T01:56:04;11.80;92.60
42841;DHT22;28491;46.898;7.660;2023-10-19T01:58:31;11.90;92.60
42841;DHT22;28491;46.898;7.660;2023-10-19T02:01:02;11.90;92.50
42841;DHT22;28491;46.898;7.660;2023-10-19T02:03:34;11.90;92.50
42841;DHT22;28491;46.898;7.660;2023-10-19T02:06:03;11.90;92.50
42841;DHT22;28491;46.898;7.660;2023-10-19T02:08:37;11.90;92.50
42841;DHT22;28491;46.898;7.660;2023-10-19T02:11:06;11.90;92.40
42841;DHT22;28491;46.898;7.660;2023-10-19T02:13:42;11.90;92.30
42841;DHT22;28491;46.898;7.660;2023-10-19T02:16:08;11.90;92.10
42841;DHT22;28491;46.898;7.660;2023-10-19T02:18:33;11.90;92.10
42841;DHT22;28491;46.898;7.660;2023-10-19T02:21:01;11.90;92.10
42841;DHT22;28491;46.898;7.660;2023-10-19T02:23:32;11.90;92.00
42841;DHT22;28491;46.898;7.660;2023-10-19T02:26:00;11.90;91.90
42841;DHT22;28491;46.898;7.660;2023-10-19T02:28:25;11.90;92.00
42841;DHT22;28491;46.898;7.660;2023-10-19T02:30:57;11.90;92.20
42841;DHT22;28491;46.898;7.660;2023-10-19T02:33:22;12.00;92.20
42841;DHT22;28491;46.898;7.660;2023-10-19T02:35:48;11.90;91.80
42841;DHT22;28491;46.898;7.660;2023-10-19T02:38:16;11.80;91.90
42841;DHT22;28491;46.898;7.660;2023-10-19T02:40:42;11.90;91.90
42841;DHT22;28491;46.898;7.660;2023-10-19T02:43:07;11.90;92.10
42841;DHT22;28491;46.898;7.660;2023-10-19T02:45:34;11.90;92.10
42841;DHT22;28491;46.898;7.660;2023-10-19T02:48:00;11.90;92.10
42841;DHT22;28491;46.898;7.660;2023-10-19T02:50:26;11.90;92.10
42841;DHT22;28491;46.898;7.660;2023-10-19T02:52:52;11.80;92.00
42841;DHT22;28491;46.898;7.660;2023-10-19T02:55:19;11.90;92.20
42841;DHT22;28491;46.898;7.660;2023-10-19T02:57:48;11.90;92.20
42841;DHT22;28491;46.898;7.660;2023-10-19T03:00:15;11.90;92.30
42841;DHT22;28491;46.898;7.660;2023-10-19T03:02:45;11.90;92.40
42841;DHT22;28491;46.898;7.660;2023-10-19T03:05:10;11.90;92.50
42841;DHT22;28491;46.898;7.660;2023-10-19T03:07:45;11.80;92.50
42841;DHT22;28491;46.898;7.660;2023-10-19T03:10:11;11.90;92.50
42841;DHT22;28491;46.898;7.660;2023-10-19T03:12:51;11.90;92.70
42841;DHT22;28491;46.898;7.660;2023-10-19T03:15:18;11.90;93.10
42841;DHT22;28491;46.898;7.660;2023-10-19T03:17:46;11.90;93.40
42841;DHT22;28491;46.898;7.660;2023-10-19T03:20:12;11.90;93.30
42841;DHT22;28491;46.898;7.660;2023-10-19T03:22:37;11.90;93.50
42841;DHT22;28491;46.898;7.660;2023-10-19T03:25:10;11.90;93.80
42841;DHT22;28491;46.898;7.660;2023-10-19T03:27:54;11.90;94.00
42841;DHT22;28491;46.898;7.660;2023-10-19T03:30:21;11.90;94.30
42841;DHT22;28491;46.898;7.660;2023-10-19T03:32:50;11.90;94.50
42841;DHT22;28491;46.898;7.660;2023-10-19T03:35:15;11.90;94.80
42841;DHT22;28491;46.898;7.660;2023-10-19T03:37:41;11.80;95.00
42841;DHT22;28491;46.898;7.660;2023-10-19T03:40:08;11.80;95.50
42841;DHT22;28491;46.898;7.660;2023-10-19T03:42:36;11.80;95.80
42841;DHT22;28491;46.898;7.660;2023-10-19T03:45:09;11.80;96.10
42841;DHT22;28491;46.898;7.660;2023-10-19T03:47:38;11.80;96.30
42841;DHT22;28491;46.898;7.660;2023-10-19T03:50:05;11.80;96.60
42841;DHT22;28491;46.898;7.660;2023-10-19T03:52:37;11.80;96.70
42841;DHT22;28491;46.898;7.660;2023-10-19T03:55:04;11.80;96.90
42841;DHT22;28491;46.898;7.660;2023-10-19T03:57:43;11.80;97.00
42841;DHT22;28491;46.898;7.660;2023-10-19T04:00:16;11.80;97.10
42841;DHT22;28491;46.898;7.660;2023-10-19T04:02:42;11.80;97.30
42841;DHT22;28491;46.898;7.660;2023-10-19T04:05:08;11.80;97.50
42841;DHT22;28491;46.898;7.660;2023-10-19T04:07:40;11.80;97.60
42841;DHT22;28491;46.898;7.660;2023-10-19T04:10:07;11.80;97.70
42841;DHT22;28491;46.898;7.660;2023-10-19T04:12:34;11.80;97.70
42841;DHT22;28491;46.898;7.660;2023-10-19T04:15:05;11.80;97.80
42841;DHT22;28491;46.898;7.660;2023-10-19T04:17:45;11.80;97.90
42841;DHT22;28491;46.898;7.660;2023-10-19T04:20:11;11.80;98.10
42841;DHT22;28491;46.898;7.660;2023-10-19T04:22:44;11.80;98.10
42841;DHT22;28491;46.898;7.660;2023-10-19T04:25:09;11.80;98.10
42841;DHT22;28491;46.898;7.660;2023-10-19T04:27:39;11.80;98.20
42841;DHT22;28491;46.898;7.660;2023-10-19T04:30:05;11.80;98.30
42841;DHT22;28491;46.898;7.660;2023-10-19T04:32:41;11.70;98.50
42841;DHT22;28491;46.898;7.660;2023-10-19T04:35:07;11.70;98.50
42841;DHT22;28491;46.898;7.660;2023-10-19T04:37:35;11.70;98.60
42841;DHT22;28491;46.898;7.660;2023-10-19T04:40:00;11.80;98.60
42841;DHT22;28491;46.898;7.660;2023-10-19T04:42:26;11.70;98.70
42841;DHT22;28491;46.898;7.660;2023-10-19T04:44:55;11.80;98.70
42841;DHT22;28491;46.898;7.660;2023-10-19T04:50:39;11.80;98.90
42841;DHT22;28491;46.898;7.660;2023-10-19T04:53:05;11.80;99.00
42841;DHT22;28491;46.898;7.660;2023-10-19T04:55:31;11.80;99.00
42841;DHT22;28491;46.898;7.660;2023-10-19T04:57:56;11.80;99.00
42841;DHT22;28491;46.898;7.660;2023-10-19T05:00:22;11.80;99.10
42841;DHT22;28491;46.898;7.660;2023-10-19T05:02:50;11.80;99.10
42841;DHT22;28491;46.898;7.660;2023-10-19T05:05:17;11.80;99.10
42841;DHT22;28491;46.898;7.660;2023-10-19T05:07:43;11.80;99.10
42841;DHT22;28491;46.898;7.660;2023-10-19T05:10:09;11.90;99.00
42841;DHT22;28491;46.898;7.660;2023-10-19T05:12:35;11.90;99.00
42841;DHT22;28491;46.898;7.660;2023-10-19T05:15:00;11.90;99.00
42841;DHT22;28491;46.898;7.660;2023-10-19T05:17:26;11.90;99.00
42841;DHT22;28491;46.898;7.660;2023-10-19T05:19:52;12.00;99.00
42841;DHT22;28491;46.898;7.660;2023-10-19T05:22:18;12.00;99.00
42841;DHT22;28491;46.898;7.660;2023-10-19T05:24:44;12.00;99.00
42841;DHT22;28491;46.898;7.660;2023-10-19T05:27:10;12.00;98.90
42841;DHT22;28491;46.898;7.660;2023-10-19T05:29:36;12.00;98.90
42841;DHT22;28491;46.898;7.660;2023-10-19T05:32:01;12.00;98.90
42841;DHT22;28491;46.898;7.660;2023-10-19T05:34:28;12.00;98.90
42841;DHT22;28491;46.898;7.660;2023-10-19T05:37:00;12.00;98.90
42841;DHT22;28491;46.898;7.660;2023-10-19T05:39:30;12.00;98.90
42841;DHT22;28491;46.898;7.660;2023-10-19T05:41:56;12.00;98.90
42841;DHT22;28491;46.898;7.660;2023-10-19T05:44:28;11.90;98.90
42841;DHT22;28491;46.898;7.660;2023-10-19T05:46:59;11.90;99.00
42841;DHT22;28491;46.898;7.660;2023-10-19T05:49:25;11.90;99.00
42841;DHT22;28491;46.898;7.660;2023-10-19T05:51:51;12.00;99.00
42841;DHT22;28491;46.898;7.660;2023-10-19T05:54:16;12.00;99.00
42841;DHT22;28491;46.898;7.660;2023-10-19T05:56:42;12.00;99.00
42841;DHT22;28491;46.898;7.660;2023-10-19T05:59:08;11.90;99.00
42841;DHT22;28491;46.898;7.660;2023-10-19T06:01:36;11.90;99.00
42841;DHT22;28491;46.898;7.660;2023-10-19T06:04:03;12.00;99.00
42841;DHT22;28491;46.898;7.660;2023-10-19T06:06:31;12.00;98.90
42841;DHT22;28491;46.898;7.660;2023-10-19T06:09:00;11.90;99.00
42841;DHT22;28491;46.898;7.660;2023-10-19T06:11:28;11.90;99.10
42841;DHT22;28491;46.898;7.660;2023-10-19T06:14:06;11.90;99.10
42841;DHT22;28491;46.898;7.660;2023-10-19T06:16:33;11.90;99.20
42841;DHT22;28491;46.898;7.660;2023-10-19T06:18:59;11.90;99.30
42841;DHT22;28491;46.898;7.660;2023-10-19T06:21:25;11.90;99.40
42841;DHT22;28491;46.898;7.660;2023-10-19T06:23:51;11.90;99.40
42841;DHT22;28491;46.898;7.660;2023-10-19T06:26:18;11.90;99.50
42841;DHT22;28491;46.898;7.660;2023-10-19T06:28:43;12.00;99.60
42841;DHT22;28491;46.898;7.660;2023-10-19T06:31:09;12.00;99.60
42841;DHT22;28491;46.898;7.660;2023-10-19T06:33:35;12.00;99.60
42841;DHT22;28491;46.898;7.660;2023-10-19T06:36:01;12.00;99.60
42841;DHT22;28491;46.898;7.660;2023-10-19T06:38:29;12.00;99.60
42841;DHT22;28491;46.898;7.660;2023-10-19T06:40:54;12.00;99.60
42841;DHT22;28491;46.898;7.660;2023-10-19T06:43:20;12.00;99.60
42841;DHT22;28491;46.898;7.660;2023-10-19T06:45:49;12.00;99.60
42841;DHT22;28491;46.898;7.660;2023-10-19T06:48:15;12.10;99.60
42841;DHT22;28491;46.898;7.660;2023-10-19T06:50:40;12.10;99.60
42841;DHT22;28491;46.898;7.660;2023-10-19T06:53:06;12.10;99.60
42841;DHT22;28491;46.898;7.660;2023-10-19T06:55:32;12.10;99.50
42841;DHT22;28491;46.898;7.660;2023-10-19T06:57:58;12.10;99.60
42841;DHT22;28491;46.898;7.660;2023-10-19T07:00:25;12.10;99.60
42841;DHT22;28491;46.898;7.660;2023-10-19T07:02:55;12.10;99.70
42841;DHT22;28491;46.898;7.660;2023-10-19T07:05:22;12.10;99.70
42841;DHT22;28491;46.898;7.660;2023-10-19T07:07:49;12.10;99.70
42841;DHT22;28491;46.898;7.660;2023-10-19T07:10:17;12.10;99.80
42841;DHT22;28491;46.898;7.660;2023-10-19T07:12:48;12.10;99.80
42841;DHT22;28491;46.898;7.660;2023-10-19T07:15:16;12.10;99.80
42841;DHT22;28491;46.898;7.660;2023-10-19T07:17:45;12.10;99.90
42841;DHT22;28491;46.898;7.660;2023-10-19T07:20:12;12.10;99.90
42841;DHT22;28491;46.898;7.660;2023-10-19T07:22:51;12.10;99.90
42841;DHT22;28491;46.898;7.660;2023-10-19T07:25:17;12.10;99.90
42841;DHT22;28491;46.898;7.660;2023-10-19T07:27:46;12.20;99.90
42841;DHT22;28491;46.898;7.660;2023-10-19T07:30:12;12.20;99.90
42841;DHT22;28491;46.898;7.660;2023-10-19T07:32:40;12.20;99.90
42841;DHT22;28491;46.898;7.660;2023-10-19T07:35:06;12.30;99.90
42841;DHT22;28491;46.898;7.660;2023-10-19T07:37:32;12.30;99.90
42841;DHT22;28491;46.898;7.660;2023-10-19T07:39:58;12.40;99.90
42841;DHT22;28491;46.898;7.660;2023-10-19T07:42:24;12.40;99.90
42841;DHT22;28491;46.898;7.660;2023-10-19T07:44:49;12.50;99.90
42841;DHT22;28491;46.898;7.660;2023-10-19T07:47:15;12.50;99.90
42841;DHT22;28491;46.898;7.660;2023-10-19T07:49:41;12.60;99.90
42841;DHT22;28491;46.898;7.660;2023-10-19T07:52:07;12.60;99.90
42841;DHT22;28491;46.898;7.660;2023-10-19T07:54:34;12.60;99.90
42841;DHT22;28491;46.898;7.660;2023-10-19T07:57:03;12.70;99.90
42841;DHT22;28491;46.898;7.660;2023-10-19T07:59:32;12.70;99.90
42841;DHT22;28491;46.898;7.660;2023-10-19T08:01:58;12.80;99.90
42841;DHT22;28491;46.898;7.660;2023-10-19T08:04:23;12.80;99.90
42841;DHT22;28491;46.898;7.660;2023-10-19T08:06:50;12.90;99.80
42841;DHT22;28491;46.898;7.660;2023-10-19T08:09:16;12.80;99.70
42841;DHT22;28491;46.898;7.660;2023-10-19T08:11:48;12.80;99.70
42841;DHT22;28491;46.898;7.660;2023-10-19T08:14:14;12.90;99.60
42841;DHT22;28491;46.898;7.660;2023-10-19T08:16:39;12.90;99.50
42841;DHT22;28491;46.898;7.660;2023-10-19T08:19:07;12.90;99.50
42841;DHT22;28491;46.898;7.660;2023-10-19T08:21:33;12.90;99.30
42841;DHT22;28491;46.898;7.660;2023-10-19T08:24:00;12.90;99.30
42841;DHT22;28491;46.898;7.660;2023-10-19T08:26:30;13.00;99.30
42841;DHT22;28491;46.898;7.660;2023-10-19T08:28:55;13.10;99.20
42841;DHT22;28491;46.898;7.660;2023-10-19T08:31:21;13.10;99.10
42841;DHT22;28491;46.898;7.660;2023-10-19T08:33:46;13.10;99.00
42841;DHT22;28491;46.898;7.660;2023-10-19T08:36:20;13.20;99.00
42841;DHT22;28491;46.898;7.660;2023-10-19T08:38:46;13.20;99.10
42841;DHT22;28491;46.898;7.660;2023-10-19T08:41:14;13.30;98.90
42841;DHT22;28491;46.898;7.660;2023-10-19T08:43:40;13.30;98.50
42841;DHT22;28491;46.898;7.660;2023-10-19T08:46:06;13.30;98.40
42841;DHT22;28491;46.898;7.660;2023-10-19T08:48:34;13.30;98.40
42841;DHT22;28491;46.898;7.660;2023-10-19T08:51:03;13.40;98.50
42841;DHT22;28491;46.898;7.660;2023-10-19T08:53:30;13.50;98.60
42841;DHT22;28491;46.898;7.660;2023-10-19T08:55:56;13.50;98.50
42841;DHT22;28491;46.898;7.660;2023-10-19T08:58:22;13.60;98.40
42841;DHT22;28491;46.898;7.660;2023-10-19T09:00:50;13.70;98.10
42841;DHT22;28491;46.898;7.660;2023-10-19T09:03:22;13.80;97.80
42841;DHT22;28491;46.898;7.660;2023-10-19T09:05:49;13.70;97.50
42841;DHT22;28491;46.898;7.660;2023-10-19T09:08:17;13.70;96.60
42841;DHT22;28491;46.898;7.660;2023-10-19T09:10:43;13.80;96.60
42841;DHT22;28491;46.898;7.660;2023-10-19T09:13:10;13.90;97.00
42841;DHT22;28491;46.898;7.660;2023-10-19T09:15:39;13.90;97.10
42841;DHT22;28491;46.898;7.660;2023-10-19T09:18:17;13.80;97.20
42841;DHT22;28491;46.898;7.660;2023-10-19T09:20:49;13.90;97.30
42841;DHT22;28491;46.898;7.660;2023-10-19T09:23:19;13.90;97.90
42841;DHT22;28491;46.898;7.660;2023-10-19T09:25:44;14.00;98.20
42841;DHT22;28491;46.898;7.660;2023-10-19T09:28:10;14.00;98.00
42841;DHT22;28491;46.898;7.660;2023-10-19T09:30:39;14.00;98.00
42841;DHT22;28491;46.898;7.660;2023-10-19T09:33:05;14.00;98.20
42841;DHT22;28491;46.898;7.660;2023-10-19T09:35:34;13.90;98.00
42841;DHT22;28491;46.898;7.660;2023-10-19T09:37:59;14.00;98.20
42841;DHT22;28491;46.898;7.660;2023-10-19T09:40:26;14.00;98.20
42841;DHT22;28491;46.898;7.660;2023-10-19T09:42:56;14.00;98.20
42841;DHT22;28491;46.898;7.660;2023-10-19T09:45:27;14.00;98.30
42841;DHT22;28491;46.898;7.660;2023-10-19T09:47:55;14.10;98.40
42841;DHT22;28491;46.898;7.660;2023-10-19T09:50:22;14.10;98.10
42841;DHT22;28491;46.898;7.660;2023-10-19T09:52:48;14.10;97.90
42841;DHT22;28491;46.898;7.660;2023-10-19T09:57:53;14.20;97.20
42841;DHT22;28491;46.898;7.660;2023-10-19T10:00:19;14.30;96.90
42841;DHT22;28491;46.898;7.660;2023-10-19T10:02:52;14.30;96.50
42841;DHT22;28491;46.898;7.660;2023-10-19T10:10:50;14.40;96.30
42841;DHT22;28491;46.898;7.660;2023-10-19T10:15:57;14.40;95.80
42841;DHT22;28491;46.898;7.660;2023-10-19T10:18:33;14.40;95.80
42841;DHT22;28491;46.898;7.660;2023-10-19T10:21:06;14.40;95.50
42841;DHT22;28491;46.898;7.660;2023-10-19T10:23:48;14.40;95.70
42841;DHT22;28491;46.898;7.660;2023-10-19T10:26:16;14.40;96.40
42841;DHT22;28491;46.898;7.660;2023-10-19T10:28:46;14.40;96.90
42841;DHT22;28491;46.898;7.660;2023-10-19T10:31:22;14.40;97.10
42841;DHT22;28491;46.898;7.660;2023-10-19T10:33:53;14.30;97.30
42841;DHT22;28491;46.898;7.660;2023-10-19T10:36:22;14.40;97.20
42841;DHT22;28491;46.898;7.660;2023-10-19T10:38:51;14.30;97.40
42841;DHT22;28491;46.898;7.660;2023-10-19T10:41:24;14.50;97.60
42841;DHT22;28491;46.898;7.660;2023-10-19T10:43:58;14.50;97.80
42841;DHT22;28491;46.898;7.660;2023-10-19T10:46:28;14.60;97.70
42841;DHT22;28491;46.898;7.660;2023-10-19T10:48:57;14.60;97.40
42841;DHT22;28491;46.898;7.660;2023-10-19T10:51:25;14.70;97.30
42841;DHT22;28491;46.898;7.660;2023-10-19T10:53:52;14.70;97.10
42841;DHT22;28491;46.898;7.660;2023-10-19T10:56:20;14.80;96.70
42841;DHT22;28491;46.898;7.660;2023-10-19T10:58:46;14.80;96.30
42841;DHT22;28491;46.898;7.660;2023-10-19T11:01:12;14.90;95.80
42841;DHT22;28491;46.898;7.660;2023-10-19T11:03:41;14.90;94.40
42841;DHT22;28491;46.898;7.660;2023-10-19T11:06:09;14.90;93.20
42841;DHT22;28491;46.898;7.660;2023-10-19T11:08:36;14.90;93.30
42841;DHT22;28491;46.898;7.660;2023-10-19T11:11:07;14.90;93.10
42841;DHT22;28491;46.898;7.660;2023-10-19T11:13:33;14.90;93.30
42841;DHT22;28491;46.898;7.660;2023-10-19T11:16:01;15.00;93.50
42841;DHT22;28491;46.898;7.660;2023-10-19T11:18:34;15.10;93.40
42841;DHT22;28491;46.898;7.660;2023-10-19T11:21:03;15.10;92.60
42841;DHT22;28491;46.898;7.660;2023-10-19T11:24:01;15.20;91.50
42841;DHT22;28491;46.898;7.660;2023-10-19T11:26:28;15.20;91.20
42841;DHT22;28491;46.898;7.660;2023-10-19T11:29:01;15.20;90.50
42841;DHT22;28491;46.898;7.660;2023-10-19T11:31:29;15.30;87.20
42841;DHT22;28491;46.898;7.660;2023-10-19T11:34:03;15.30;86.10
42841;DHT22;28491;46.898;7.660;2023-10-19T11:36:29;15.30;85.00
42841;DHT22;28491;46.898;7.660;2023-10-19T11:38:54;15.30;80.50
42841;DHT22;28491;46.898;7.660;2023-10-19T11:41:20;15.40;75.40
42841;DHT22;28491;46.898;7.660;2023-10-19T11:43:47;15.40;77.00
42841;DHT22;28491;46.898;7.660;2023-10-19T11:46:13;15.40;78.70
42841;DHT22;28491;46.898;7.660;2023-10-19T11:48:50;15.40;78.80
42841;DHT22;28491;46.898;7.660;2023-10-19T11:51:16;15.30;78.10
42841;DHT22;28491;46.898;7.660;2023-10-19T11:53:42;15.30;80.80
42841;DHT22;28491;46.898;7.660;2023-10-19T11:56:10;15.40;81.20
42841;DHT22;28491;46.898;7.660;2023-10-19T11:58:37;15.40;82.10
42841;DHT22;28491;46.898;7.660;2023-10-19T12:01:05;15.40;86.40
42841;DHT22;28491;46.898;7.660;2023-10-19T12:03:34;15.50;90.20
42841;DHT22;28491;46.898;7.660;2023-10-19T12:06:06;15.50;90.60
42841;DHT22;28491;46.898;7.660;2023-10-19T12:08:32;15.60;90.10
42841;DHT22;28491;46.898;7.660;2023-10-19T12:10:59;15.60;90.10
42841;DHT22;28491;46.898;7.660;2023-10-19T12:13:27;15.60;84.20
42841;DHT22;28491;46.898;7.660;2023-10-19T12:15:53;15.60;80.20
42841;DHT22;28491;46.898;7.660;2023-10-19T12:18:20;15.70;82.00
42841;DHT22;28491;46.898;7.660;2023-10-19T12:20:46;15.70;84.00
42841;DHT22;28491;46.898;7.660;2023-10-19T12:23:13;15.80;89.00
42841;DHT22;28491;46.898;7.660;2023-10-19T12:25:38;15.80;88.10
42841;DHT22;28491;46.898;7.660;2023-10-19T12:28:04;15.80;85.40
42841;DHT22;28491;46.898;7.660;2023-10-19T12:30:30;15.90;81.70
42841;DHT22;28491;46.898;7.660;2023-10-19T12:33:05;15.90;76.30
42841;DHT22;28491;46.898;7.660;2023-10-19T12:35:37;15.90;67.80
42841;DHT22;28491;46.898;7.660;2023-10-19T12:38:31;15.90;61.80
42841;DHT22;28491;46.898;7.660;2023-10-19T12:40:58;16.00;40.70
42841;DHT22;28491;46.898;7.660;2023-10-19T12:43:24;16.00;31.40
42841;DHT22;28491;46.898;7.660;2023-10-19T12:45:50;16.00;1.00
42841;DHT22;28491;46.898;7.660;2023-10-19T12:48:19;16.20;1.00
42841;DHT22;28491;46.898;7.660;2023-10-19T12:50:46;16.20;1.00
42841;DHT22;28491;46.898;7.660;2023-10-19T12:53:11;16.20;1.00
42841;DHT22;28491;46.898;7.660;2023-10-19T12:55:37;16.20;1.00
42841;DHT22;28491;46.898;7.660;2023-10-19T12:58:04;16.20;1.00
42841;DHT22;28491;46.898;7.660;2023-10-19T13:00:33;16.20;1.00
42841;DHT22;28491;46.898;7.660;2023-10-19T13:03:01;16.20;1.00
42841;DHT22;28491;46.898;7.660;2023-10-19T13:05:38;16.20;1.00
42841;DHT22;28491;46.898;7.660;2023-10-19T13:08:05;16.20;1.00
42841;DHT22;28491;46.898;7.660;2023-10-19T13:10:33;16.20;1.00
42841;DHT22;28491;46.898;7.660;2023-10-19T13:13:05;16.20;1.00
42841;DHT22;28491;46.898;7.660;2023-10-19T13:15:32;16.30;1.00
42841;DHT22;28491;46.898;7.660;2023-10-19T13:18:00;16.30;1.00
42841;DHT22;28491;46.898;7.660;2023-10-19T13:20:26;16.30;1.00
42841;DHT22;28491;46.898;7.660;2023-10-19T13:22:52;16.30;1.00
42841;DHT22;28491;46.898;7.660;2023-10-19T13:25:18;16.30;1.00
42841;DHT22;28491;46.898;7.660;2023-10-19T13:27:46;16.40;1.00
42841;DHT22;28491;46.898;7.660;2023-10-19T13:30:12;16.40;1.00
42841;DHT22;28491;46.898;7.660;2023-10-19T13:32:37;16.40;1.00
42841;DHT22;28491;46.898;7.660;2023-10-19T13:35:04;16.40;1.00
42841;DHT22;28491;46.898;7.660;2023-10-19T13:37:30;16.40;1.00
42841;DHT22;28491;46.898;7.660;2023-10-19T13:39:56;16.40;1.00
42841;DHT22;28491;46.898;7.660;2023-10-19T13:42:22;16.50;1.00
42841;DHT22;28491;46.898;7.660;2023-10-19T13:44:47;16.40;1.00
42841;DHT22;28491;46.898;7.660;2023-10-19T13:47:13;16.50;1.00
42841;DHT22;28491;46.898;7.660;2023-10-19T13:49:38;16.50;1.00
42841;DHT22;28491;46.898;7.660;2023-10-19T13:52:04;16.40;1.00
42841;DHT22;28491;46.898;7.660;2023-10-19T13:54:30;16.40;1.00
42841;DHT22;28491;46.898;7.660;2023-10-19T13:56:56;16.50;1.00
42841;DHT22;28491;46.898;7.660;2023-10-19T13:59:21;16.40;1.00
42841;DHT22;28491;46.898;7.660;2023-10-19T14:01:49;16.40;1.00
42841;DHT22;28491;46.898;7.660;2023-10-19T14:04:15;16.40;1.00
42841;DHT22;28491;46.898;7.660;2023-10-19T14:06:41;16.40;1.00
42841;DHT22;28491;46.898;7.660;2023-10-19T14:09:08;16.30;1.00
42841;DHT22;28491;46.898;7.660;2023-10-19T14:11:38;16.40;1.00
42841;DHT22;28491;46.898;7.660;2023-10-19T14:14:03;16.40;1.00
42841;DHT22;28491;46.898;7.660;2023-10-19T14:16:30;16.30;1.00
42841;DHT22;28491;46.898;7.660;2023-10-19T14:18:56;16.30;1.00
42841;DHT22;28491;46.898;7.660;2023-10-19T14:21:22;16.30;1.00
42841;DHT22;28491;46.898;7.660;2023-10-19T14:23:52;16.30;1.00
42841;DHT22;28491;46.898;7.660;2023-10-19T14:26:18;16.20;1.00
42841;DHT22;28491;46.898;7.660;2023-10-19T14:28:44;16.20;1.00
42841;DHT22;28491;46.898;7.660;2023-10-19T14:31:10;16.20;1.00
42841;DHT22;28491;46.898;7.660;2023-10-19T14:33:37;16.10;1.00
42841;DHT22;28491;46.898;7.660;2023-10-19T14:36:06;16.20;1.00
42841;DHT22;28491;46.898;7.660;2023-10-19T14:38:32;16.20;1.00
42841;DHT22;28491;46.898;7.660;2023-10-19T14:40:58;16.20;1.00
42841;DHT22;28491;46.898;7.660;2023-10-19T14:43:24;16.10;1.00
42841;DHT22;28491;46.898;7.660;2023-10-19T14:45:55;16.10;1.00
42841;DHT22;28491;46.898;7.660;2023-10-19T14:48:22;16.10;1.00
42841;DHT22;28491;46.898;7.660;2023-10-19T14:50:48;16.00;1.00
42841;DHT22;28491;46.898;7.660;2023-10-19T14:53:19;16.00;1.00
42841;DHT22;28491;46.898;7.660;2023-10-19T14:55:50;16.00;1.00
42841;DHT22;28491;46.898;7.660;2023-10-19T14:58:17;16.00;1.00
42841;DHT22;28491;46.898;7.660;2023-10-19T15:00:43;16.00;1.00
42841;DHT22;28491;46.898;7.660;2023-10-19T15:03:14;15.90;1.00
42841;DHT22;28491;46.898;7.660;2023-10-19T15:05:41;15.90;1.00
42841;DHT22;28491;46.898;7.660;2023-10-19T15:08:08;15.90;1.00
42841;DHT22;28491;46.898;7.660;2023-10-19T15:10:41;15.80;1.00
42841;DHT22;28491;46.898;7.660;2023-10-19T15:13:07;15.80;4.40
42841;DHT22;28491;46.898;7.660;2023-10-19T15:15:33;15.80;15.80
42841;DHT22;28491;46.898;7.660;2023-10-19T15:17:58;15.80;32.30
42841;DHT22;28491;46.898;7.660;2023-10-19T15:20:25;15.70;40.80
42841;DHT22;28491;46.898;7.660;2023-10-19T15:22:51;15.70;45.10
42841;DHT22;28491;46.898;7.660;2023-10-19T15:25:19;15.70;52.30
42841;DHT22;28491;46.898;7.660;2023-10-19T15:27:46;15.70;56.40
42841;DHT22;28491;46.898;7.660;2023-10-19T15:30:14;15.60;62.80
42841;DHT22;28491;46.898;7.660;2023-10-19T15:32:46;15.60;66.10
42841;DHT22;28491;46.898;7.660;2023-10-19T15:35:13;15.50;69.60
42841;DHT22;28491;46.898;7.660;2023-10-19T15:37:41;15.50;71.40
42841;DHT22;28491;46.898;7.660;2023-10-19T15:40:08;15.50;72.40
42841;DHT22;28491;46.898;7.660;2023-10-19T15:42:38;15.50;72.20
42841;DHT22;28491;46.898;7.660;2023-10-19T15:45:08;15.50;72.70
42841;DHT22;28491;46.898;7.660;2023-10-19T15:47:34;15.40;73.50
42841;DHT22;28491;46.898;7.660;2023-10-19T15:50:00;15.40;74.60
42841;DHT22;28491;46.898;7.660;2023-10-19T15:52:26;15.40;79.00
42841;DHT22;28491;46.898;7.660;2023-10-19T15:54:57;15.40;80.00
42841;DHT22;28491;46.898;7.660;2023-10-19T15:57:23;15.40;79.30